Terminal Aerodrome Forecast
Issued by NWS

Home | Current Version | Previous Version | Text Only | Print | Product List | Glossary Off
Versions: 1 2 3 4 5 6 7 8 9 10 11 12 13 14 15 16 17 18 19 20 21 22 23 24 25 26

000
FTUS43 KABR 242100 AAA
TAFATY
TAF AMD
KATY 242146Z 2422/2518 VRB05KT P6SM -RA OVC040
      TEMPO 2422/2501 3SM -RA BR OVC025
     FM250400 35014KT 2SM -SN BR OVC007
     FM251400 36009KT P6SM OVC015=

USA.gov is the U.S. government's official web portal to all federal, state and local government web resources and services.